Price, Canada
Current Conditions -  °F | °C
As of 11:00 AM on Wednesday 26 Nov 2014 (Local Time) from CYYY Reporting Station
Overcast Overcast  
Wind Chill: 22°   Ceiling: 8000
Heat Index: 30°   Visibility: 30mi
Dew Point: 18°   Wind: 9mph
Humidity: 60%   Direction: 310°NW
Pressure: 30.21"   Gusts: NA
Location:  48.6°N, 68.13°W
Report Text: CYYY 261600Z 31008KT 30SM SCT045 OVC080 M01/M08 A3021 RMK SC4AC4 SLP233
Loading
Personal Weather Stations






























Interactive Weather Map New forecast layout! Learn more

10-Day Weather Forecast

Advertisements
Track Severe Weather on mobile